createdAt,value
2022-10-03T00:01:15.658Z,18.60
2022-10-03T00:04:01.187Z,18.60
2022-10-03T00:06:47.716Z,18.60
2022-10-03T00:09:38.534Z,18.60
2022-10-03T00:12:19.742Z,18.60
2022-10-03T00:15:04.525Z,18.60
2022-10-03T00:17:47.891Z,18.60
2022-10-03T00:21:04.113Z,18.60
2022-10-03T00:23:48.335Z,18.60
2022-10-03T00:26:30.631Z,18.60
2022-10-03T00:29:37.426Z,18.60
2022-10-03T00:32:27.565Z,18.60
2022-10-03T00:35:13.557Z,18.60
2022-10-03T00:38:04.755Z,18.60
2022-10-03T00:41:32.164Z,18.50
2022-10-03T00:44:52.309Z,18.50
2022-10-03T00:48:16.988Z,18.50
2022-10-03T00:51:07.284Z,18.50
2022-10-03T00:53:52.154Z,18.50
2022-10-03T00:56:51.089Z,18.50
2022-10-03T00:59:40.037Z,18.50
2022-10-03T01:02:37.752Z,18.50
2022-10-03T01:05:19.680Z,18.50
2022-10-03T01:08:19.908Z,18.50
2022-10-03T01:10:58.916Z,18.50
2022-10-03T01:13:46.269Z,18.50
2022-10-03T01:16:26.207Z,18.50
2022-10-03T01:19:12.239Z,18.50
2022-10-03T01:21:51.095Z,18.50
2022-10-03T01:24:52.985Z,18.40
2022-10-03T01:27:57.106Z,18.50
2022-10-03T01:30:34.248Z,18.50
2022-10-03T01:33:12.544Z,18.50
2022-10-03T01:35:54.178Z,18.50
2022-10-03T01:38:33.850Z,18.50
2022-10-03T01:41:10.260Z,18.50
2022-10-03T01:43:48.288Z,18.50
2022-10-03T01:46:25.068Z,18.50
2022-10-03T01:49:07.303Z,18.50
2022-10-03T01:51:48.564Z,18.50
2022-10-03T01:54:26.250Z,18.50
2022-10-03T01:57:02.684Z,18.50
2022-10-03T01:59:43.840Z,18.50
2022-10-03T02:02:24.885Z,18.50
2022-10-03T02:05:03.696Z,18.50
2022-10-03T02:07:46.440Z,18.50
2022-10-03T02:10:36.457Z,18.50
2022-10-03T02:13:16.794Z,18.50
2022-10-03T02:16:05.671Z,18.50
2022-10-03T02:18:47.878Z,18.50
2022-10-03T02:21:21.556Z,18.50
2022-10-03T02:23:52.855Z,18.50
2022-10-03T02:26:58.430Z,18.40
2022-10-03T02:29:52.525Z,18.40
2022-10-03T02:33:19.047Z,18.40
2022-10-03T02:36:20.962Z,18.40
2022-10-03T02:39:19.837Z,18.40
2022-10-03T02:42:34.350Z,18.40
2022-10-03T02:45:44.623Z,18.40
2022-10-03T02:49:14.036Z,18.30
2022-10-03T02:52:05.461Z,18.30
2022-10-03T02:55:05.163Z,18.30
2022-10-03T02:58:20.684Z,18.30
2022-10-03T03:01:20.719Z,18.30
2022-10-03T03:04:17.487Z,18.40
2022-10-03T03:07:18.204Z,18.30
2022-10-03T03:10:27.909Z,18.30
2022-10-03T03:13:50.050Z,18.30
2022-10-03T03:17:00.039Z,18.30
2022-10-03T03:19:48.492Z,18.30
2022-10-03T03:22:49.618Z,18.30
2022-10-03T03:25:39.717Z,18.30
2022-10-03T03:28:28.669Z,18.30
2022-10-03T03:31:12.267Z,18.40
2022-10-03T03:33:55.053Z,18.40
2022-10-03T03:36:36.146Z,18.40
2022-10-03T03:39:24.617Z,18.30
2022-10-03T03:42:13.804Z,18.40
2022-10-03T03:45:03.402Z,18.40
2022-10-03T03:48:05.514Z,18.30
2022-10-03T03:50:53.546Z,18.40
2022-10-03T03:54:06.867Z,18.30
2022-10-03T03:57:01.218Z,18.30
2022-10-03T03:59:51.146Z,18.30
2022-10-03T04:02:40.492Z,18.40
2022-10-03T04:05:28.086Z,18.40
2022-10-03T04:08:22.017Z,18.40
2022-10-03T04:11:12.264Z,18.40
2022-10-03T04:14:01.404Z,18.40
2022-10-03T04:17:07.901Z,18.40
2022-10-03T04:20:00.946Z,18.40
2022-10-03T04:23:00.431Z,18.40
2022-10-03T04:25:54.636Z,18.40
2022-10-03T04:28:55.269Z,18.40
2022-10-03T04:31:43.008Z,18.40
2022-10-03T04:34:34.707Z,18.40
2022-10-03T04:37:24.298Z,18.30
2022-10-03T04:40:17.711Z,18.30
2022-10-03T04:43:03.478Z,18.30
2022-10-03T04:45:52.922Z,18.30
2022-10-03T04:48:33.266Z,18.30
2022-10-03T04:51:13.754Z,18.30
2022-10-03T04:53:53.106Z,18.30
2022-10-03T04:56:43.498Z,18.30
2022-10-03T04:59:39.133Z,18.30
2022-10-03T05:02:22.765Z,18.30
2022-10-03T05:05:20.638Z,18.30
2022-10-03T05:07:59.336Z,18.30
2022-10-03T05:10:58.298Z,18.30
2022-10-03T05:13:42.509Z,18.30
2022-10-03T05:16:22.816Z,18.30
2022-10-03T05:19:03.561Z,18.30
2022-10-03T05:21:42.316Z,18.30
2022-10-03T05:24:27.279Z,18.30
2022-10-03T05:27:03.843Z,18.30
2022-10-03T05:29:45.509Z,18.30
2022-10-03T05:32:26.551Z,18.30
2022-10-03T05:35:22.612Z,18.30
2022-10-03T05:38:22.104Z,18.30
2022-10-03T05:41:04.482Z,18.30
2022-10-03T05:43:58.753Z,18.30
2022-10-03T05:46:57.788Z,18.30
2022-10-03T05:49:54.051Z,18.20
2022-10-03T05:52:58.421Z,18.30
2022-10-03T05:56:00.127Z,18.30
2022-10-03T05:59:17.509Z,18.20
2022-10-03T06:02:24.650Z,18.20
2022-10-03T06:05:24.353Z,18.20
2022-10-03T06:08:39.694Z,18.20
2022-10-03T06:11:28.230Z,18.20
2022-10-03T06:14:34.798Z,18.20
2022-10-03T06:17:53.622Z,18.20
2022-10-03T06:21:02.071Z,18.20
2022-10-03T06:24:22.879Z,18.20
2022-10-03T06:27:59.722Z,18.20
2022-10-03T06:30:54.732Z,18.20
2022-10-03T06:34:01.721Z,18.20
2022-10-03T06:36:57.269Z,18.20
2022-10-03T06:40:09.694Z,18.20
2022-10-03T06:43:11.174Z,18.20
2022-10-03T06:46:46.285Z,18.20
2022-10-03T06:49:59.134Z,18.20
2022-10-03T06:53:12.741Z,18.20
2022-10-03T06:56:38.267Z,18.10
2022-10-03T06:59:41.659Z,18.20
2022-10-03T07:03:02.031Z,18.20
2022-10-03T07:06:11.650Z,18.20
2022-10-03T07:09:28.325Z,18.20
2022-10-03T07:12:43.928Z,18.20
2022-10-03T07:16:25.909Z,18.20
2022-10-03T07:19:48.367Z,18.20
2022-10-03T07:23:22.436Z,18.20
2022-10-03T07:26:41.308Z,18.20
2022-10-03T07:29:31.136Z,18.20
2022-10-03T07:32:45.107Z,18.20
2022-10-03T07:36:00.563Z,18.20
2022-10-03T07:39:10.301Z,18.20
2022-10-03T07:42:27.763Z,18.20
2022-10-03T07:45:34.419Z,18.20
2022-10-03T07:49:00.237Z,18.20
2022-10-03T07:51:41.375Z,18.20
2022-10-03T07:54:58.541Z,18.20
2022-10-03T07:57:52.343Z,18.20
2022-10-03T08:00:25.240Z,18.20
2022-10-03T08:03:47.420Z,18.20
2022-10-03T08:06:26.339Z,18.30
2022-10-03T08:09:35.998Z,18.20
2022-10-03T08:12:49.884Z,18.30
2022-10-03T08:15:35.079Z,18.30
2022-10-03T08:18:45.362Z,18.30
2022-10-03T08:21:25.998Z,18.30
2022-10-03T08:24:38.292Z,18.30
2022-10-03T08:27:38.002Z,18.30
2022-10-03T08:30:23.682Z,18.30
2022-10-03T08:33:53.723Z,18.30
2022-10-03T08:36:59.962Z,18.30
2022-10-03T08:39:48.549Z,18.40
2022-10-03T08:43:07.219Z,18.40
2022-10-03T08:46:21.455Z,18.40
2022-10-03T08:49:22.425Z,18.40
2022-10-03T08:52:21.381Z,18.40
2022-10-03T08:55:32.554Z,18.40
2022-10-03T08:58:36.592Z,18.40
2022-10-03T09:01:38.488Z,18.40
2022-10-03T09:05:07.429Z,18.40
2022-10-03T09:08:34.171Z,18.40
2022-10-03T09:11:32.876Z,18.40
2022-10-03T09:14:35.674Z,18.50
2022-10-03T09:17:39.013Z,18.50
2022-10-03T09:21:07.057Z,18.50
2022-10-03T09:24:30.145Z,18.50
2022-10-03T09:27:36.812Z,18.50
2022-10-03T09:30:25.021Z,18.50
2022-10-03T09:33:50.579Z,18.50
2022-10-03T09:37:17.911Z,18.50
2022-10-03T09:40:20.905Z,18.50
2022-10-03T09:43:29.222Z,18.50
2022-10-03T09:47:08.413Z,18.50
2022-10-03T09:50:31.626Z,18.50
2022-10-03T09:53:45.828Z,18.60
2022-10-03T09:57:09.956Z,18.60
2022-10-03T10:00:01.558Z,18.60
2022-10-03T10:03:43.575Z,18.60
2022-10-03T10:06:42.362Z,18.70
2022-10-03T10:10:00.029Z,18.60
2022-10-03T10:13:18.092Z,18.70
2022-10-03T10:16:27.502Z,18.70
2022-10-03T10:19:34.431Z,18.70
2022-10-03T10:22:53.433Z,18.70
2022-10-03T10:26:17.142Z,18.70
2022-10-03T10:29:19.805Z,18.70
2022-10-03T10:32:53.697Z,18.70
2022-10-03T10:36:06.801Z,18.80
2022-10-03T10:39:30.601Z,18.80
2022-10-03T10:43:08.246Z,18.80
2022-10-03T10:46:37.266Z,18.90
2022-10-03T10:50:00.455Z,18.90
2022-10-03T10:53:04.852Z,18.90
2022-10-03T10:56:44.098Z,18.90
2022-10-03T11:03:50.392Z,18.90
2022-10-03T11:07:08.254Z,19.00
2022-10-03T11:09:55.158Z,19.00
2022-10-03T11:13:35.449Z,19.00
2022-10-03T11:16:58.641Z,19.00
2022-10-03T11:20:22.814Z,18.90
2022-10-03T11:23:50.451Z,19.10
2022-10-03T11:27:12.505Z,19.10
2022-10-03T11:30:14.580Z,19.10
2022-10-03T11:33:35.491Z,19.10
2022-10-03T11:36:51.042Z,19.20
2022-10-03T11:39:31.975Z,19.20
2022-10-03T11:42:11.848Z,19.20
2022-10-03T11:44:50.810Z,19.20
2022-10-03T11:47:57.512Z,19.30
2022-10-03T11:50:45.904Z,19.30
2022-10-03T11:53:28.333Z,19.30
2022-10-03T11:56:18.516Z,19.30
2022-10-03T11:59:11.116Z,19.40
2022-10-03T12:01:59.836Z,19.40
2022-10-03T12:04:45.541Z,19.40
2022-10-03T12:07:58.706Z,19.40
2022-10-03T12:10:42.902Z,19.40
2022-10-03T12:13:17.335Z,19.40
2022-10-03T12:15:51.157Z,19.50
2022-10-03T12:18:34.289Z,19.50
2022-10-03T12:21:11.621Z,19.50
2022-10-03T12:24:24.761Z,19.50
2022-10-03T12:27:05.459Z,19.50
2022-10-03T12:29:39.484Z,19.50
2022-10-03T12:32:28.780Z,19.60
2022-10-03T12:35:17.742Z,19.60
2022-10-03T12:38:07.679Z,19.60
2022-10-03T12:40:43.552Z,19.60
2022-10-03T12:43:37.405Z,19.60
2022-10-03T12:46:16.881Z,19.60
2022-10-03T12:48:57.399Z,19.70
2022-10-03T12:51:51.655Z,19.70
2022-10-03T12:54:46.430Z,19.70
2022-10-03T12:57:53.469Z,19.70
2022-10-03T13:00:27.644Z,19.60
2022-10-03T13:03:19.054Z,19.70
2022-10-03T13:06:58.325Z,19.70
2022-10-03T13:09:32.911Z,19.70
2022-10-03T13:12:11.245Z,19.70
2022-10-03T13:15:21.855Z,19.70
2022-10-03T13:18:03.748Z,19.70
2022-10-03T13:20:39.215Z,19.80
2022-10-03T13:23:23.497Z,19.80
2022-10-03T13:26:13.669Z,19.80
2022-10-03T13:29:14.054Z,19.80
2022-10-03T13:32:02.234Z,19.80
2022-10-03T13:34:38.463Z,19.80
2022-10-03T13:37:17.835Z,19.80
2022-10-03T13:39:50.967Z,19.90
2022-10-03T13:42:23.364Z,19.90
2022-10-03T13:44:57.339Z,19.90
2022-10-03T13:47:45.665Z,19.90
2022-10-03T13:50:28.973Z,19.90
2022-10-03T13:53:03.517Z,19.90
2022-10-03T13:55:47.530Z,19.90
2022-10-03T13:58:35.967Z,19.90
2022-10-03T14:01:35.288Z,19.80
2022-10-03T14:04:38.740Z,19.90
2022-10-03T14:07:19.356Z,19.90
2022-10-03T14:10:20.266Z,19.90
2022-10-03T14:13:19.715Z,19.90
2022-10-03T14:15:55.771Z,19.80
2022-10-03T14:18:45.205Z,19.90
2022-10-03T14:22:01.949Z,19.90
2022-10-03T14:24:48.995Z,19.90
2022-10-03T14:27:43.945Z,19.90
2022-10-03T14:30:16.883Z,20.00
2022-10-03T14:33:17.086Z,19.90
2022-10-03T14:36:01.246Z,20.00
2022-10-03T14:39:02.237Z,20.00
2022-10-03T14:41:48.005Z,20.00
2022-10-03T14:44:22.605Z,20.00
2022-10-03T14:46:58.376Z,20.00
2022-10-03T14:52:32.705Z,20.00
2022-10-03T14:55:13.705Z,20.00
2022-10-03T14:58:09.245Z,20.00
2022-10-03T15:00:46.060Z,20.00
2022-10-03T15:03:25.255Z,20.00
2022-10-03T15:06:19.939Z,20.00
2022-10-03T15:08:54.549Z,20.00
2022-10-03T15:11:29.140Z,20.10
2022-10-03T15:14:03.567Z,20.10
2022-10-03T15:16:37.233Z,20.10
2022-10-03T15:19:14.869Z,20.10
2022-10-03T15:21:47.000Z,20.10
2022-10-03T15:24:25.567Z,20.10
2022-10-03T15:27:01.649Z,20.10
2022-10-03T15:29:35.115Z,20.10
2022-10-03T15:32:08.530Z,20.10
2022-10-03T15:34:42.164Z,20.10
2022-10-03T15:37:19.308Z,20.10
2022-10-03T15:39:52.493Z,20.20
2022-10-03T15:42:30.977Z,20.10
2022-10-03T15:45:05.397Z,20.10
2022-10-03T15:47:40.043Z,20.10
2022-10-03T15:50:18.109Z,20.10
2022-10-03T15:52:52.848Z,20.10
2022-10-03T15:55:28.008Z,20.10
2022-10-03T15:58:08.884Z,20.10
2022-10-03T16:00:38.902Z,20.10
2022-10-03T16:03:15.716Z,20.10
2022-10-03T16:06:00.666Z,20.10
2022-10-03T16:08:33.863Z,20.10
2022-10-03T16:11:13.367Z,20.10
2022-10-03T16:13:47.638Z,20.10
2022-10-03T16:16:23.680Z,20.10
2022-10-03T16:19:03.693Z,20.10
2022-10-03T16:21:49.073Z,19.90
2022-10-03T16:24:31.441Z,20.10
2022-10-03T16:27:12.563Z,20.10
2022-10-03T16:29:50.582Z,20.10
2022-10-03T16:32:24.826Z,20.10
2022-10-03T16:34:54.301Z,20.20
2022-10-03T16:37:30.617Z,20.00
2022-10-03T16:40:03.215Z,20.20
2022-10-03T16:42:42.230Z,20.10
2022-10-03T16:45:26.007Z,20.10
2022-10-03T16:48:19.446Z,20.10
2022-10-03T16:50:54.484Z,20.10
2022-10-03T16:53:24.272Z,20.10
2022-10-03T16:56:00.419Z,20.10
2022-10-03T16:58:33.677Z,20.10
2022-10-03T17:01:26.425Z,20.20
2022-10-03T17:04:09.946Z,20.10
2022-10-03T17:06:40.830Z,20.10
2022-10-03T17:09:31.733Z,20.10
2022-10-03T17:12:02.895Z,20.10
2022-10-03T17:14:40.035Z,20.10
2022-10-03T17:21:23.715Z,20.00
2022-10-03T17:24:06.392Z,20.00
2022-10-03T17:26:40.265Z,20.00
2022-10-03T17:29:18.988Z,20.00
2022-10-03T17:31:57.706Z,20.10
2022-10-03T17:34:34.369Z,20.10
2022-10-03T17:37:45.056Z,20.00
2022-10-03T17:40:23.687Z,20.00
2022-10-03T17:43:01.218Z,20.00
2022-10-03T17:45:41.480Z,20.00
2022-10-03T17:48:19.725Z,20.00
2022-10-03T17:51:12.010Z,20.00
2022-10-03T17:53:53.168Z,20.00
2022-10-03T17:56:25.605Z,20.00
2022-10-03T17:59:03.386Z,19.90
2022-10-03T18:01:40.479Z,19.90
2022-10-03T18:04:19.031Z,19.90
2022-10-03T18:06:50.666Z,19.90
2022-10-03T18:09:29.791Z,19.90
2022-10-03T18:12:16.318Z,19.90
2022-10-03T18:15:20.805Z,19.90
2022-10-03T18:18:15.619Z,19.90
2022-10-03T18:20:51.689Z,19.90
2022-10-03T18:23:53.226Z,19.90
2022-10-03T18:26:28.556Z,19.90
2022-10-03T18:29:14.505Z,19.90
2022-10-03T18:31:48.819Z,19.90
2022-10-03T18:34:23.312Z,19.90
2022-10-03T18:36:55.670Z,19.90
2022-10-03T18:39:29.570Z,19.90
2022-10-03T18:42:02.675Z,19.90
2022-10-03T18:44:36.146Z,19.90
2022-10-03T18:47:18.646Z,19.80
2022-10-03T18:50:03.180Z,19.80
2022-10-03T18:52:40.513Z,19.80
2022-10-03T18:55:20.205Z,19.80
2022-10-03T18:58:01.548Z,19.80
2022-10-03T19:00:40.634Z,19.80
2022-10-03T19:03:17.730Z,19.80
2022-10-03T19:05:52.139Z,19.80
2022-10-03T19:08:27.655Z,19.80
2022-10-03T19:11:02.763Z,19.70
2022-10-03T19:13:45.465Z,19.70
2022-10-03T19:16:33.314Z,19.70
2022-10-03T19:19:13.138Z,19.70
2022-10-03T19:21:44.224Z,19.80
2022-10-03T19:24:34.460Z,19.70
2022-10-03T19:27:15.444Z,19.70
2022-10-03T19:29:51.181Z,19.70
2022-10-03T19:32:27.450Z,19.70
2022-10-03T19:35:04.880Z,19.70
2022-10-03T19:37:45.583Z,19.70
2022-10-03T19:40:36.393Z,19.70
2022-10-03T19:43:32.560Z,19.60
2022-10-03T19:47:10.942Z,19.60
2022-10-03T19:50:00.578Z,19.60
2022-10-03T19:52:31.411Z,19.60
2022-10-03T19:55:12.481Z,19.60
2022-10-03T19:57:46.543Z,19.60
2022-10-03T20:00:30.086Z,19.60
2022-10-03T20:03:15.820Z,19.60
2022-10-03T20:05:55.765Z,19.60
2022-10-03T20:08:30.786Z,19.60
2022-10-03T20:11:21.840Z,19.60
2022-10-03T20:13:51.197Z,19.60
2022-10-03T20:16:23.831Z,19.60
2022-10-03T20:18:57.984Z,19.60
2022-10-03T20:21:33.392Z,19.60
2022-10-03T20:24:03.197Z,19.60
2022-10-03T20:26:39.309Z,19.50
2022-10-03T20:29:22.611Z,19.50
2022-10-03T20:31:52.047Z,19.60
2022-10-03T20:34:26.248Z,19.50
2022-10-03T20:37:10.980Z,19.50
2022-10-03T20:39:44.368Z,19.50
2022-10-03T20:42:21.881Z,19.50
2022-10-03T20:45:01.536Z,19.50
2022-10-03T20:48:00.268Z,19.50
2022-10-03T20:50:35.480Z,19.50
2022-10-03T20:53:12.116Z,19.50
2022-10-03T20:55:49.190Z,19.50
2022-10-03T20:58:28.438Z,19.50
2022-10-03T21:01:04.155Z,19.50
2022-10-03T21:03:42.915Z,19.40
2022-10-03T21:06:24.438Z,19.50
2022-10-03T21:08:56.265Z,19.50
2022-10-03T21:11:28.986Z,19.50
2022-10-03T21:14:00.815Z,19.50
2022-10-03T21:16:36.129Z,19.50
2022-10-03T21:19:13.008Z,19.50
2022-10-03T21:21:52.469Z,19.40
2022-10-03T21:24:28.932Z,19.40
2022-10-03T21:27:01.169Z,19.50
2022-10-03T21:29:32.889Z,19.50
2022-10-03T21:32:29.929Z,19.40
2022-10-03T21:35:12.289Z,19.40
2022-10-03T21:37:51.271Z,19.40
2022-10-03T21:40:43.167Z,19.40
2022-10-03T21:43:29.924Z,19.40
2022-10-03T21:46:10.466Z,19.40
2022-10-03T21:49:00.739Z,19.40
2022-10-03T21:51:36.750Z,19.40
2022-10-03T21:54:31.645Z,19.40
2022-10-03T21:57:13.325Z,19.20
2022-10-03T22:00:11.016Z,19.40
2022-10-03T22:02:54.253Z,19.40
2022-10-03T22:05:37.006Z,19.40
2022-10-03T22:08:21.081Z,19.30
2022-10-03T22:11:09.349Z,19.30
2022-10-03T22:13:42.125Z,19.40
2022-10-03T22:16:21.554Z,19.40
2022-10-03T22:19:10.897Z,19.30
2022-10-03T22:21:48.842Z,19.30
2022-10-03T22:24:30.681Z,19.30
2022-10-03T22:27:11.961Z,19.30
2022-10-03T22:29:54.986Z,19.30
2022-10-03T22:32:34.153Z,19.20
2022-10-03T22:35:22.139Z,19.20
2022-10-03T22:37:51.069Z,19.40
2022-10-03T22:40:20.365Z,19.40
2022-10-03T22:42:56.643Z,19.30
2022-10-03T22:45:28.911Z,19.40
2022-10-03T22:48:02.059Z,19.40
2022-10-03T22:50:34.647Z,19.40
2022-10-03T22:53:05.148Z,19.40
2022-10-03T22:55:34.033Z,19.40
2022-10-03T22:58:07.863Z,19.40
2022-10-03T23:00:36.859Z,19.40
2022-10-03T23:03:11.887Z,19.40
2022-10-03T23:06:23.052Z,19.30
2022-10-03T23:09:06.869Z,19.20
2022-10-03T23:11:37.690Z,19.40
2022-10-03T23:14:19.207Z,19.20
2022-10-03T23:16:56.668Z,19.30
2022-10-03T23:19:41.806Z,19.30
2022-10-03T23:22:19.591Z,19.30
2022-10-03T23:24:57.024Z,19.30
2022-10-03T23:27:47.421Z,19.30
2022-10-03T23:30:56.798Z,19.30
2022-10-03T23:33:53.858Z,19.30
2022-10-03T23:36:25.461Z,19.30
2022-10-03T23:39:01.146Z,19.30
2022-10-03T23:41:57.061Z,19.30
2022-10-03T23:44:49.295Z,19.30
2022-10-03T23:47:27.254Z,19.30
2022-10-03T23:49:57.171Z,19.30
2022-10-03T23:52:30.416Z,19.30
2022-10-03T23:55:05.169Z,19.30
2022-10-03T23:57:38.385Z,19.30
